Flight Track Log - Related Links

Times and Time Zones

All times are in EDT time to prevent confusion due to time zone crossing. See the UAL252 flight status page for this flight to view local times or setup timezone preferences in your user account.

Time Position Orientation Groundspeed Altitude Reporting Facility
EDT Latitude Longitude Course Direction KTS MPH feet Rate Location/Type
Wed 08:01:04 PM 37.6333 -122.3500 71° East 162 186 1,000  Level Northern Cal TRACON
Wed 08:02:04 PM 37.6833 -122.3000 38° Northeast 240 276 2,800 2,286 Climbing Northern Cal TRACON
Wed 08:03:10 PM 37.7333 -122.2167 53° Northeast 342 394 5,800 2,400 Climbing Northern Cal TRACON
Wed 08:04:00 PM 37.6978 -122.1054 63° Northeast  Level FlightAware Approximate
Wed 08:05:00 PM 37.7510 -121.9529 65° Northeast  Level FlightAware Approximate
Wed 08:05:04 PM 37.8500 -122.0667 45° Northeast 336 387 10,000  Level Northern Cal TRACON
Wed 08:06:00 PM 37.8018 -121.7992 71° East  Level FlightAware Approximate
Wed 08:06:19 PM 37.8853 -121.9281 72° East 383 441 12,200  Level Oakland Center
Wed 08:07:20 PM 37.9114 -121.7989 76° East 380 437 14,600 2,146 Climbing Oakland Center
Wed 08:08:22 PM 37.9397 -121.6619 75° East 399 459 16,600 2,049 Climbing Oakland Center
Wed 08:09:23 PM 37.9756 -121.4933 75° East 413 475 18,800 1,820 Climbing Oakland Center
Wed 08:10:24 PM 38.0003 -121.3697 76° East 423 487 20,300 1,659 Climbing Oakland Center
Wed 08:11:26 PM 38.0369 -121.1889 76° East 443 510 22,200 1,659 Climbing Oakland Center
Wed 08:12:27 PM 38.0686 -121.0344 75° East 454 522 23,700 1,279 Climbing Oakland Center
Wed 08:13:28 PM 38.1042 -120.8781 74° East 465 535 24,800 1,171 Climbing Oakland Center
Wed 08:14:30 PM 38.1433 -120.7158 73° East 481 554 26,100 1,268 Climbing Oakland Center
Wed 08:15:31 PM 38.1833 -120.5506 73° East 491 565 27,400 1,180 Climbing Oakland Center
Wed 08:16:32 PM 38.2219 -120.3847 73° East 492 566 28,500 1,171 Climbing Oakland Center
Wed 08:17:34 PM 38.2611 -120.2167 73° East 496 571 29,800 1,415 Climbing Oakland Center
Wed 08:18:35 PM 38.3094 -120.0172 73° East 491 565 31,400 1,245 Climbing Oakland Center
Wed 08:20:13 PM 38.3683 -119.7553 74° East 490 564 33,100 1,013 Climbing Salt Lake Center
Wed 08:21:15 PM 38.4075 -119.5900 73° East 489 563 34,100 1,113 Climbing Salt Lake Center
Wed 08:22:17 PM 38.4444 -119.4258 74° East 484 557 35,400 919 Climbing Salt Lake Center
Wed 08:23:19 PM 38.4822 -119.2619 74° East 483 556 36,000 726 Climbing Salt Lake Center
Wed 08:24:21 PM 38.5139 -119.0633 78° East 480 552 36,900 414 Climbing Salt Lake Center
Wed 08:25:44 PM 38.5372 -118.8333 83° East 469 540 37,000 41 Climbing Oakland Center
Wed 08:26:46 PM 38.5531 -118.6694 83° East 469 540 37,000 49 Level Oakland Center
Wed 08:27:47 PM 38.5700 -118.5006 83° East 479 551 37,100  Climbing Oakland Center
Wed 08:28:49 PM 38.5861 -118.3319 83° East 481 554 37,000 -49 Descending Oakland Center
Wed 08:29:50 PM 38.6017 -118.1658 83° East 476 548 37,000  Level Oakland Center
Wed 08:30:52 PM 38.6169 -118.0008 83° East 472 543 37,000  Level Oakland Center
Wed 08:31:53 PM 38.6325 -117.8314 83° East 475 547 37,000  Level Oakland Center
Wed 08:32:54 PM 38.6475 -117.6633 83° East 474 545 37,000  Level Oakland Center
Wed 08:33:38 PM 38.6594 -117.5289 83° East 474 545 37,000  Level Salt Lake Center
Wed 08:34:40 PM 38.6742 -117.3622 83° East 471 542 37,000  Level Salt Lake Center
Wed 08:35:41 PM 38.6944 -117.1939 81° East 474 545 37,000  Level Salt Lake Center
Wed 08:36:43 PM 38.7197 -117.0272 79° East 475 547 37,000  Level Salt Lake Center
Wed 08:37:45 PM 38.7564 -116.8628 74° East 478 550 37,000  Level Salt Lake Center
Wed 08:38:47 PM 38.8025 -116.6664 73° East 478 550 37,000  Level Salt Lake Center
Wed 08:39:49 PM 38.8425 -116.5031 72° East 480 552 37,000  Level Salt Lake Center
Wed 08:40:51 PM 38.8800 -116.3403 73° East 477 549 37,000  Level Salt Lake Center
Wed 08:41:53 PM 38.9181 -116.1769 73° East 478 550 37,000  Level Salt Lake Center
Wed 08:42:55 PM 38.9558 -116.0161 73° East 472 543 37,000  Level Salt Lake Center
Wed 08:43:57 PM 38.9925 -115.8558 74° East 470 541 37,000  Level Salt Lake Center
Wed 08:44:59 PM 39.0292 -115.6944 74° East 469 540 37,000  Level Salt Lake Center
Wed 08:46:00 PM 39.0906 -115.5128 66° East 471 542 37,000  Level Salt Lake Center
Wed 08:47:02 PM 39.1481 -115.3664 63° Northeast 464 534 37,000  Level Salt Lake Center
Wed 08:48:04 PM 39.2064 -115.2222 62° Northeast 470 541 37,000  Level Salt Lake Center
Wed 08:49:06 PM 39.2711 -115.0564 63° Northeast 468 539 37,000  Level Salt Lake Center
Wed 08:50:08 PM 39.3281 -114.9133 63° Northeast 467 537 37,000  Level Salt Lake Center
Wed 08:51:10 PM 39.3933 -114.7472 63° Northeast 467 537 37,000  Level Salt Lake Center
Wed 08:52:12 PM 39.4519 -114.6036 62° Northeast 472 543 37,000  Level Salt Lake Center
Wed 08:53:14 PM 39.5061 -114.4294 68° East 468 539 37,000  Level Salt Lake Center
Wed 08:54:15 PM 39.5328 -114.2656 78° East 466 536 37,000  Level Salt Lake Center
Wed 08:55:17 PM 39.5597 -114.1036 78° East 461 531 37,000  Level Salt Lake Center
Wed 08:56:19 PM 39.5869 -113.9403 78° East 463 533 37,000  Level Salt Lake Center
Wed 08:57:21 PM 39.6147 -113.7769 78° East 464 534 37,000  Level Salt Lake Center
Wed 08:58:23 PM 39.6408 -113.6114 78° East 467 537 37,000  Level Salt Lake Center
Wed 08:59:25 PM 39.6667 -113.4478 78° East 465 535 37,000  Level Salt Lake Center
Wed 09:00:26 PM 39.6992 -113.2486 78° East 469 540 37,000  Level Salt Lake Center
Wed 09:01:28 PM 39.7247 -113.0822 79° East 470 541 37,000  Level Salt Lake Center
Wed 09:02:30 PM 39.7519 -112.9181 78° East 466 536 37,000  Level Salt Lake Center
Wed 09:03:32 PM 39.7758 -112.7644 79° East 465 535 37,000  Level Salt Lake Center
Wed 09:04:33 PM 39.8008 -112.5981 79° East 470 541 37,000  Level Salt Lake Center
Wed 09:05:35 PM 39.8306 -112.3983 79° East 472 543 37,000  Level Salt Lake Center
Wed 09:06:37 PM 39.8558 -112.2319 79° East 473 544 37,000  Level Salt Lake Center
Wed 09:07:39 PM 39.8803 -112.0644 79° East 475 547 37,000  Level Salt Lake Center
Wed 09:08:40 PM 39.9053 -111.8958 79° East 477 549 37,000  Level Salt Lake Center
Wed 09:09:42 PM 39.9286 -111.7281 80° East 476 548 37,000  Level Salt Lake Center
Wed 09:10:44 PM 39.9544 -111.5425 80° East 477 549 37,000  Level Salt Lake Center
Wed 09:11:45 PM 39.9789 -111.3825 79° East 473 544 37,000  Level Salt Lake Center
Wed 09:12:47 PM 40.0050 -111.1956 80° East 467 537 37,000  Level Salt Lake Center
Wed 09:13:49 PM 40.0278 -111.0328 80° East 474 545 37,000  Level Salt Lake Center
Wed 09:14:50 PM 40.0556 -110.8425 79° East 478 550 37,000  Level Salt Lake Center
Wed 09:15:52 PM 40.0767 -110.6786 80° East 478 550 37,000  Level Salt Lake Center
Wed 09:16:53 PM 40.1011 -110.4861 81° East 481 554 37,000  Level Salt Lake Center
Wed 09:17:55 PM 40.1317 -110.3242 76° East 481 554 37,000  Level Salt Lake Center
Wed 09:18:56 PM 40.1642 -110.1608 75° East 485 558 37,000  Level Salt Lake Center
Wed 09:19:58 PM 40.2019 -109.9697 75° East 485 558 37,000  Level Salt Lake Center
Wed 09:21:00 PM 40.2325 -109.8064 76° East 484 557 37,000  Level Salt Lake Center
Wed 09:22:01 PM 40.2692 -109.6150 76° East 484 557 37,000  Level Salt Lake Center
Wed 09:23:03 PM 40.3003 -109.4500 76° East 486 559 37,000  Level Salt Lake Center
Wed 09:24:04 PM 40.3308 -109.2847 76° East 487 560 37,000  Level Salt Lake Center
Wed 09:25:06 PM 40.3669 -109.0903 76° East 489 563 37,000  Level Salt Lake Center
Wed 09:26:07 PM 40.3983 -108.9247 76° East 488 562 37,000  Level Salt Lake Center
Wed 09:27:09 PM 40.4319 -108.7364 77° East 492 566 37,000  Level Salt Lake Center
Wed 09:28:10 PM 40.4617 -108.5692 77° East 493 567 37,000  Level Salt Lake Center
Wed 09:28:59 PM 40.4900 -108.4144 76° East 498 573 37,000  Level Denver Center
Wed 09:30:01 PM 40.5194 -108.2444 77° East 497 572 37,000  Level Denver Center
Wed 09:31:03 PM 40.5494 -108.0744 77° East 499 574 37,000  Level Denver Center
Wed 09:32:05 PM 40.5836 -107.8775 77° East 495 570 37,000  Level Denver Center
Wed 09:33:07 PM 40.6181 -107.6789 77° East 498 573 37,000  Level Denver Center
Wed 09:34:08 PM 40.6472 -107.5069 77° East 501 577 37,000  Level Denver Center
Wed 09:35:10 PM 40.6808 -107.3081 77° East 500 575 37,000  Level Denver Center
Wed 09:36:12 PM 40.7086 -107.1431 77° East 502 578 37,000  Level Denver Center
Wed 09:37:14 PM 40.7386 -106.9633 78° East 502 578 37,000  Level Denver Center
Wed 09:38:15 PM 40.7669 -106.7817 78° East 500 575 37,000  Level Denver Center
Wed 09:39:17 PM 40.8003 -106.5806 78° East 501 577 37,000  Level Denver Center
Wed 09:40:19 PM 40.8261 -106.4075 79° East 502 578 37,000  Level Denver Center
Wed 09:41:21 PM 40.8589 -106.2053 78° East 503 579 37,000  Level Denver Center
Wed 09:42:23 PM 40.8864 -106.0353 78° East 503 579 37,000  Level Denver Center
Wed 09:43:25 PM 40.9139 -105.8536 79° East 503 579 37,000  Level Denver Center
Wed 09:44:26 PM 40.9422 -105.6717 78° East 506 582 37,000  Level Denver Center
Wed 09:45:28 PM 40.9703 -105.4886 78° East 508 585 37,000  Level Denver Center
Wed 09:46:30 PM 41.0025 -105.2669 79° East 510 587 37,000  Level Denver Center
Wed 09:47:32 PM 41.0264 -105.0900 80° East 510 587 37,000  Level Denver Center
Wed 09:48:34 PM 41.0575 -104.8867 78° East 509 586 37,000  Level Denver Center
Wed 09:49:36 PM 41.0825 -104.7122 79° East 505 581 37,000  Level Denver Center
Wed 09:50:38 PM 41.1117 -104.5061 79° East 509 586 37,000  Level Denver Center
Wed 09:51:40 PM 41.1361 -104.3358 79° East 496 571 37,000  Level Denver Center
Wed 09:52:42 PM 41.1639 -104.1308 80° East 505 581 37,000  Level Denver Center
Wed 09:53:44 PM 41.1886 -103.9550 79° East 508 585 37,000  Level Denver Center
Wed 09:54:46 PM 41.2156 -103.7494 80° East 508 585 37,000  Level Denver Center
Wed 09:55:48 PM 41.2400 -103.5744 79° East 506 582 37,000  Level Denver Center
Wed 09:56:50 PM 41.2661 -103.3689 80° East 507 583 37,000  Level Denver Center
Wed 09:57:52 PM 41.2897 -103.1936 80° East 506 582 37,000  Level Denver Center
Wed 09:58:53 PM 41.3156 -102.9881 80° East 505 581 37,000  Level Denver Center
Wed 09:59:55 PM 41.3383 -102.8092 80° East 513 590 37,000  Level Denver Center
Wed 10:00:57 PM 41.3578 -102.6589 80° East 516 594 37,000  Level Denver Center
Wed 10:01:59 PM 41.3808 -102.4658 81° East 519 597 37,000  Level Denver Center
Wed 10:03:01 PM 41.4108 -102.2197 81° East 527 606 37,000  Level Denver Center
Wed 10:04:03 PM 41.4331 -102.0350 81° East 528 608 37,000  Level Denver Center
Wed 10:05:05 PM 41.4581 -101.8181 81° East 530 610 37,000  Level Denver Center
Wed 10:06:07 PM 41.4803 -101.6317 81° East 530 610 37,000  Level Denver Center
Wed 10:07:09 PM 41.5053 -101.4128 81° East 532 612 37,000  Level Denver Center
Wed 10:08:11 PM 41.5261 -101.2253 81° East 533 613 37,000  Level Denver Center
Wed 10:09:13 PM 41.5514 -101.0047 81° East 535 616 37,000  Level Denver Center
Wed 10:10:15 PM 41.5725 -100.8133 82° East 540 621 37,000  Level Denver Center
Wed 10:11:17 PM 41.5931 -100.6211 82° East 542 624 37,000  Level Denver Center
Wed 10:12:18 PM 41.6164 -100.3961 82° East 547 629 37,000  Level Denver Center
Wed 10:13:20 PM 41.6367 -100.2039 82° East 546 628 37,000  Level Denver Center
Wed 10:14:22 PM 41.6586 -99.9781 83° East 546 628 37,000  Level Denver Center
Wed 10:15:24 PM 41.6786 -99.7858 82° East 546 628 37,000  Level Denver Center
Wed 10:16:26 PM 41.6981 -99.5728 83° East 547 629 37,000  Level Denver Center
Wed 10:17:28 PM 41.7186 -99.3719 82° East 544 626 37,000  Level Denver Center
Wed 10:18:30 PM 41.7369 -99.1719 83° East 539 620 37,000  Level Denver Center
Wed 10:19:32 PM 41.7536 -98.9747 83° East 533 613 37,000 -44 Level Denver Center
Wed 10:20:46 PM 41.7758 -98.7372 83° East 531 611 36,900  Descending Denver Center
Wed 10:21:47 PM 41.7889 -98.5783 84° East 532 612 37,000 444 Climbing Denver Center
Wed 10:23:01 PM 41.8178 -98.2575 83° East 540 621 37,900 882 Climbing Minneapolis Center
Wed 10:24:03 PM 41.8336 -98.0656 84° East 539 620 39,000 537 Climbing Minneapolis Center
Wed 10:25:04 PM 41.8503 -97.8692 83° East 532 612 39,000  Level Minneapolis Center
Wed 10:26:06 PM 41.8667 -97.6736 84° East 529 609 39,000  Level Minneapolis Center
Wed 10:27:07 PM 41.8808 -97.4769 84° East 529 609 39,000  Level Minneapolis Center
Wed 10:28:09 PM 41.8967 -97.2778 84° East 533 613 39,000  Level Minneapolis Center
Wed 10:29:10 PM 41.9122 -97.0789 84° East 535 616 39,000  Level Minneapolis Center
Wed 10:30:11 PM 41.9261 -96.8806 85° East 534 615 39,000  Level Minneapolis Center
Wed 10:31:13 PM 41.9408 -96.6800 84° East 535 616 39,000  Level Minneapolis Center
Wed 10:32:14 PM 41.9569 -96.4400 85° East 535 616 39,000  Level Minneapolis Center
Wed 10:33:16 PM 41.9694 -96.2414 85° East 532 612 39,000  Level Minneapolis Center
Wed 10:34:30 PM 41.9861 -96.0011 85° East 533 613 39,000  Level Minneapolis Center
Wed 10:35:31 PM 41.9986 -95.8014 85° East 532 612 39,000  Level Minneapolis Center
Wed 10:36:32 PM 42.0103 -95.6033 85° East 531 611 39,000  Level Minneapolis Center
Wed 10:37:46 PM 42.0225 -95.4044 85° East 532 612 39,000  Level Minneapolis Center
Wed 10:38:48 PM 42.0356 -95.1650 86° East 533 613 39,000  Level Minneapolis Center
Wed 10:39:49 PM 42.0475 -94.9664 85° East 532 612 39,000  Level Minneapolis Center
Wed 10:40:51 PM 42.0581 -94.7656 86° East 537 618 39,000  Level Minneapolis Center
Wed 10:41:52 PM 42.0675 -94.5669 86° East 534 615 39,000  Level Minneapolis Center
Wed 10:42:53 PM 42.0781 -94.3686 86° East 532 612 39,000  Level Minneapolis Center
Wed 10:43:55 PM 42.0892 -94.1297 86° East 532 612 39,000  Level Minneapolis Center
Wed 10:44:56 PM 42.0994 -93.9322 86° East 530 610 39,000  Level Minneapolis Center
Wed 10:45:58 PM 42.1083 -93.7478 86° East 532 612 39,000  Level Minneapolis Center
Wed 10:46:59 PM 42.1169 -93.5522 87° East 531 611 39,000  Level Minneapolis Center
Wed 10:48:01 PM 42.1269 -93.3536 86° East 535 616 39,000  Level Minneapolis Center
Wed 10:49:02 PM 42.1347 -93.1161 87° East 536 617 39,000  Level Minneapolis Center
Wed 10:50:04 PM 42.1422 -92.9153 87° East 540 621 39,000  Level Minneapolis Center
Wed 10:51:05 PM 42.1492 -92.7158 87° East 542 624 39,000  Level Minneapolis Center
Wed 10:52:07 PM 42.1572 -92.5164 87° East 541 623 39,000  Level Minneapolis Center
Wed 10:53:08 PM 42.1633 -92.3178 88° East 539 620 39,000  Level Minneapolis Center
Wed 10:54:10 PM 42.1689 -92.1161 88° East 542 624 39,000  Level Minneapolis Center
Wed 10:55:11 PM 42.1764 -91.8758 88° East 544 626 39,000  Level Minneapolis Center
Wed 10:56:12 PM 42.1817 -91.6742 88° East 546 628 39,000  Level Minneapolis Center
Wed 10:57:14 PM 42.1869 -91.4744 88° East 545 627 39,000  Level Minneapolis Center
Wed 10:58:15 PM 42.1922 -91.2831 88° East 543 625 39,000  Level Minneapolis Center
Wed 10:59:17 PM 42.1961 -91.0750 88° East 542 624 39,000  Level Minneapolis Center
Wed 11:00:43 PM 42.2017 -90.7578 89° East 539 620 39,000  Level Chicago Center
Wed 11:01:44 PM 42.2056 -90.5572 88° East 543 625 39,000  Level Chicago Center
Wed 11:02:46 PM 42.2094 -90.3553 88° East 545 627 39,000  Level Chicago Center
Wed 11:03:47 PM 42.2136 -90.1542 88° East 544 626 39,000  Level Chicago Center
Wed 11:04:48 PM 42.2147 -89.9531 90° East 543 625 39,000  Level Chicago Center
Wed 11:05:50 PM 42.2153 -89.7125 90° East 542 624 39,000  Level Chicago Center
Wed 11:06:51 PM 42.2189 -89.5131 89° East 538 619 39,000  Level Chicago Center
Wed 11:07:52 PM 42.2194 -89.3108 90° East 540 621 39,000  Level Chicago Center
Wed 11:08:54 PM 42.2183 -89.1108 90° East 537 618 39,000  Level Chicago Center
Wed 11:09:55 PM 42.2178 -88.9097 90° East 536 617 39,000  Level Chicago Center
Wed 11:10:56 PM 42.2156 -88.7000 91° East 538 619 39,000  Level Chicago Center
Wed 11:11:58 PM 42.2136 -88.5008 91° East 536 617 39,000  Level Chicago Center
Wed 11:12:59 PM 42.2119 -88.2953 91° East 543 625 39,000  Level Chicago Center
Wed 11:14:00 PM 42.2086 -88.0936 91° East 539 620 39,000 -98 Level Chicago Center
Wed 11:15:02 PM 42.2058 -87.8931 91° East 537 618 38,800 -537 Descending Chicago Center
Wed 11:16:03 PM 42.2017 -87.6892 92° East 542 624 37,900 -1,033 Descending Chicago Center
Wed 11:17:04 PM 42.1975 -87.4450 91° East 544 626 36,700 -1,073 Descending Chicago Center
Wed 11:18:06 PM 42.1933 -87.2433 92° East 540 621 35,700 -829 Descending Chicago Center
Wed 11:19:07 PM 42.1881 -87.0417 92° East 539 620 35,000 -344 Descending Chicago Center
Wed 11:20:08 PM 42.1844 -86.8408 91° East 538 619 35,000  Level Chicago Center
Wed 11:21:10 PM 42.1783 -86.6497 92° East 542 624 35,000 -98 Level Chicago Center
Wed 11:22:11 PM 42.1728 -86.4475 92° East 542 624 34,800 -590 Descending Chicago Center
Wed 11:23:12 PM 42.1667 -86.2458 92° East 539 620 33,800 -878 Descending Chicago Center
Wed 11:24:14 PM 42.1606 -86.0447 92° East 537 618 33,000 -390 Descending Chicago Center
Wed 11:25:15 PM 42.1528 -85.8200 93° East 538 619 33,000  Level Chicago Center
Wed 11:26:16 PM 42.1461 -85.6175 92° East 545 627 33,000  Level Chicago Center
Wed 11:27:18 PM 42.1369 -85.4175 93° East 543 625 33,000  Level Chicago Center
Wed 11:28:19 PM 42.1297 -85.2147 93° East 544 626 33,000  Level Chicago Center
Wed 11:29:20 PM 42.1222 -84.9675 92° East 552 635 33,000 -197 Level Chicago Center
Wed 11:30:21 PM 42.1142 -84.7636 93° East 550 633 32,600 -1,512 Descending Chicago Center
Wed 11:31:23 PM 42.0772 -84.5711 104° East 538 619 29,900 -2,439 Descending Chicago Center
Wed 11:32:24 PM 42.0344 -84.3836 107° East 527 606 27,600 -1,721 Descending Chicago Center
Wed 11:33:25 PM 41.9925 -84.1994 107° East 519 597 26,400 -1,131 Descending Chicago Center
Wed 11:34:26 PM 41.9503 -84.0203 108° East 508 585 25,300 -1,180 Descending Chicago Center
Wed 11:35:27 PM 41.9014 -83.8278 109° East 501 577 24,000 -942 Descending Cleveland Center
Wed 11:36:27 PM 41.8661 -83.6756 107° East 489 563 23,400 -992 Descending Cleveland Center
Wed 11:37:28 PM 41.8247 -83.5092 108° East 479 551 22,000 -1,388 Descending Cleveland Center
Wed 11:38:28 PM 41.7889 -83.3514 107° East 459 528 20,600 -1,400 Descending Cleveland Center
Wed 11:39:28 PM 41.7489 -83.1967 109° East 448 516 19,200 -807 Descending Cleveland Center
Wed 11:40:27 PM 41.7106 -83.0392 108° East 442 509 19,000 -850 Descending Cleveland Center
Wed 11:41:28 PM 41.6761 -82.8878 107° East 437 503 17,500 -1,982 Descending Cleveland Center
Wed 11:42:19 PM 41.6372 -82.7447 110° East 417 480 15,300 -1,932 Descending Cleveland Center
Wed 11:43:26 PM 41.6025 -82.5964 107° East 375 432 13,700 -2,173 Descending Cleveland Center
Wed 11:44:26 PM 41.5694 -82.4567 108° East 401 461 10,700 -1,835 Descending Cleveland Center
Wed 11:45:27 PM 41.5444 -82.3283 105° East 352 405 10,000 -694 Descending Cleveland Center
Wed 11:46:27 PM 41.5542 -82.2175 83° East 322 371 9,300 -1,091 Descending Cleveland Center
Wed 11:47:28 PM 41.5642 -82.1094 83° East 302 348 7,800 -1,537 Descending Cleveland Center
Wed 11:48:28 PM 41.5761 -81.9903 82° East 292 336 6,200 -1,412 Descending Cleveland Center
Wed 11:49:27 PM 41.5878 -81.8853 82° East 292 336 5,000 -1,059 Descending Cleveland Center
Wed 11:50:27 PM 41.5553 -81.8042 118° Southeast 249 287 4,100 -650 Descending Cleveland Center
Wed 11:51:27 PM 41.5100 -81.7506 138° Southeast 230 265 3,700 -823 Descending Cleveland Center
Wed 11:52:31 PM 41.4661 -81.7497 179° South 154 177 2,400 -912 Descending Cleveland Center
Wed 11:53:32 PM 41.4492 -81.7936 243° Southwest 143 165 1,800 -645 Descending Cleveland Center
Wed 11:54:32 PM 41.4258 -81.8319 231° Southwest 151 174 1,100 -700 Descending Cleveland Center

Login

Don't have an account? Register now (free) for customized features, flight alerts, and more!